Terminal Aerodrome Forecast
Issued by NWS Jacksonville, FL

Home | Current Version | Previous Version | Text Only | Print | Product List | Glossary On
Versions: 1 2 3 4 5 6 7 8 9 10 11 12 13 14 15 16 17 18 19 20 21 22 23 24 25 26 27 28 29
000
FTUS42 KJAX 192320
TAFSSI
TAF
KSSI 192320Z 2000/2024 09007KT P6SM FEW013 SCT040 BKN100
     FM200200 19005KT P6SM FEW015 BKN040
     FM200400 18006KT P6SM SCT015 OVC100
     FM200600 18006KT P6SM OVC015
     FM200800 21006KT P6SM OVC010
     FM201300 24008KT P6SM OVC250
     FM201800 23011KT P6SM VCTS SCT030 BKN040CB OVC050
      TEMPO 2020/2024 VRB25G35KT 5SM -TSRA SCT015 BKN030CB=

USA.gov is the U.S. government's official web portal to all federal, state and local government web resources and services.